createdAt,value
2018-06-23T00:04:52.028Z,73.80
2018-06-23T00:07:20.498Z,73.90
2018-06-23T00:09:49.782Z,74.20
2018-06-23T00:12:18.254Z,74.30
2018-06-23T00:14:46.845Z,74.70
2018-06-23T00:17:15.298Z,74.30
2018-06-23T00:19:43.919Z,74.20
2018-06-23T00:22:12.384Z,75.10
2018-06-23T00:24:40.875Z,74.60
2018-06-23T00:27:09.328Z,74.90
2018-06-23T00:29:38.259Z,74.60
2018-06-23T00:32:06.753Z,74.50
2018-06-23T00:34:35.176Z,74.60
2018-06-23T00:37:03.649Z,75.10
2018-06-23T00:39:32.123Z,74.80
2018-06-23T00:42:00.566Z,74.50
2018-06-23T00:44:29.051Z,74.70
2018-06-23T00:46:57.491Z,74.30
2018-06-23T00:49:25.985Z,74.40
2018-06-23T00:51:55.007Z,74.20
2018-06-23T00:54:24.439Z,74.40
2018-06-23T00:56:52.897Z,74.20
2018-06-23T00:59:32.736Z,74.30
2018-06-23T01:02:01.167Z,74.70
2018-06-23T01:04:29.609Z,74.50
2018-06-23T01:06:58.094Z,75.00
2018-06-23T01:09:26.570Z,74.90
2018-06-23T01:11:55.092Z,74.90
2018-06-23T01:16:51.724Z,75.70
2018-06-23T01:19:20.191Z,75.60
2018-06-23T01:21:48.735Z,75.70
2018-06-23T01:24:17.280Z,75.40
2018-06-23T01:26:45.732Z,75.60
2018-06-23T01:29:14.286Z,75.50
2018-06-23T01:31:43.080Z,75.40
2018-06-23T01:34:11.555Z,75.50
2018-06-23T01:36:40.012Z,75.40
2018-06-23T01:39:10.911Z,75.90
2018-06-23T01:41:39.627Z,76.00
2018-06-23T01:44:08.127Z,76.60
2018-06-23T01:46:36.761Z,76.30
2018-06-23T01:49:05.654Z,76.30
2018-06-23T01:51:34.371Z,76.70
2018-06-23T01:54:02.861Z,76.80
2018-06-23T01:56:31.363Z,76.90
2018-06-23T01:58:59.823Z,76.80
2018-06-23T02:01:28.319Z,76.80
2018-06-23T02:03:57.313Z,77.20
2018-06-23T02:06:25.776Z,77.20
2018-06-23T02:08:54.384Z,77.00
2018-06-23T02:11:22.906Z,77.20
2018-06-23T02:13:56.602Z,76.50
2018-06-23T02:16:30.493Z,76.50
2018-06-23T02:19:04.261Z,76.10
2018-06-23T02:21:38.158Z,76.20
2018-06-23T02:24:12.005Z,76.20
2018-06-23T02:26:45.682Z,75.20
2018-06-23T02:29:19.764Z,75.30
2018-06-23T02:31:53.449Z,76.00
2018-06-23T02:34:27.228Z,75.50
2018-06-23T02:36:55.732Z,75.30
2018-06-23T02:39:24.210Z,75.10
2018-06-23T02:41:52.744Z,75.20
2018-06-23T02:44:21.282Z,75.40
2018-06-23T02:46:49.750Z,75.70
2018-06-23T02:49:18.218Z,75.30
2018-06-23T02:51:46.680Z,75.40
2018-06-23T02:54:15.122Z,75.50
2018-06-23T02:56:43.610Z,75.30
2018-06-23T02:59:12.056Z,75.20
2018-06-23T03:01:40.546Z,75.50
2018-06-23T03:04:09.080Z,75.50
2018-06-23T03:06:37.550Z,75.70
2018-06-23T03:09:06.854Z,75.40
2018-06-23T03:11:35.332Z,75.70
2018-06-23T03:14:03.840Z,76.10
2018-06-23T03:16:32.328Z,76.40
2018-06-23T03:19:00.784Z,76.60
2018-06-23T03:21:29.242Z,76.80
2018-06-23T03:23:57.699Z,77.00
2018-06-23T03:26:26.146Z,77.10
2018-06-23T03:28:54.629Z,77.20
2018-06-23T03:31:23.134Z,77.10
2018-06-23T03:33:51.704Z,77.40
2018-06-23T03:36:20.210Z,77.40
2018-06-23T03:38:48.865Z,77.60
2018-06-23T03:41:17.454Z,77.50
2018-06-23T03:43:46.011Z,77.80
2018-06-23T03:46:14.580Z,78.00
2018-06-23T03:48:43.132Z,78.00
2018-06-23T03:51:11.613Z,78.50
2018-06-23T03:53:40.116Z,78.40
2018-06-23T03:56:08.587Z,78.80
2018-06-23T03:58:37.126Z,79.20
2018-06-23T04:01:07.231Z,79.30
2018-06-23T04:03:36.186Z,79.40
2018-06-23T04:06:04.731Z,79.30
2018-06-23T04:08:33.781Z,79.30
2018-06-23T04:11:02.475Z,79.70
2018-06-23T04:13:31.166Z,79.70
2018-06-23T04:15:59.654Z,79.80
2018-06-23T04:18:28.101Z,79.50
2018-06-23T04:20:57.064Z,79.30
2018-06-23T04:23:25.488Z,79.50
2018-06-23T04:28:22.398Z,79.00
2018-06-23T04:30:51.113Z,79.40
2018-06-23T04:33:19.633Z,78.80
2018-06-23T04:40:44.418Z,79.20
2018-06-23T04:43:12.885Z,79.80
2018-06-23T04:45:41.354Z,79.20
2018-06-23T04:50:38.033Z,79.00
2018-06-23T04:53:06.519Z,79.40
2018-06-23T04:55:34.955Z,79.80
2018-06-23T04:58:03.415Z,80.10
2018-06-23T05:00:31.935Z,80.10
2018-06-23T05:03:00.397Z,80.90
2018-06-23T05:05:28.885Z,80.30
2018-06-23T05:07:57.341Z,80.20
2018-06-23T05:10:25.831Z,80.40
2018-06-23T05:12:54.276Z,80.40
2018-06-23T05:15:22.750Z,80.00
2018-06-23T05:17:51.195Z,79.50
2018-06-23T05:20:19.705Z,80.00
2018-06-23T05:22:48.167Z,80.50
2018-06-23T05:25:16.646Z,80.80
2018-06-23T05:27:45.194Z,80.20
2018-06-23T05:30:13.676Z,80.20
2018-06-23T05:35:10.355Z,80.40
2018-06-23T05:37:38.864Z,80.10
2018-06-23T05:40:07.336Z,80.20
2018-06-23T05:42:35.830Z,80.80
2018-06-23T05:45:04.405Z,78.30
2018-06-23T05:47:32.889Z,79.90
2018-06-23T05:50:01.314Z,78.60
2018-06-23T05:52:29.755Z,78.40
2018-06-23T05:57:26.449Z,79.50
2018-06-23T05:59:55.024Z,79.50
2018-06-23T06:02:24.188Z,79.90
2018-06-23T06:04:52.620Z,80.30
2018-06-23T06:07:21.114Z,77.80
2018-06-23T06:09:49.624Z,78.00
2018-06-23T06:12:18.177Z,76.80
2018-06-23T06:14:46.702Z,79.00
2018-06-23T06:17:30.763Z,77.80
2018-06-23T06:22:29.687Z,79.20
2018-06-23T06:24:58.511Z,77.70
2018-06-23T06:27:27.061Z,76.10
2018-06-23T06:29:56.091Z,76.20
2018-06-23T06:32:25.073Z,75.80
2018-06-23T06:34:53.860Z,76.50
2018-06-23T06:37:22.458Z,76.40
2018-06-23T06:39:50.996Z,75.90
2018-06-23T06:42:19.658Z,74.20
2018-06-23T06:44:48.220Z,73.10
2018-06-23T06:47:18.361Z,73.20
2018-06-23T06:49:46.959Z,71.60
2018-06-23T06:52:16.053Z,73.30
2018-06-23T06:54:45.046Z,73.00
2018-06-23T06:57:13.607Z,72.60
2018-06-23T06:59:42.089Z,73.10
2018-06-23T07:02:10.583Z,73.20
2018-06-23T07:07:07.220Z,75.00
2018-06-23T07:09:35.692Z,74.10
2018-06-23T07:12:04.320Z,71.40
2018-06-23T07:14:32.763Z,73.60
2018-06-23T07:17:01.262Z,72.70
2018-06-23T07:19:29.878Z,73.20
2018-06-23T07:21:58.339Z,71.80
2018-06-23T07:24:27.315Z,73.50
2018-06-23T07:26:55.801Z,72.50
2018-06-23T07:29:24.315Z,73.40
2018-06-23T07:31:53.875Z,72.40
2018-06-23T07:34:22.481Z,71.90
2018-06-23T07:36:51.049Z,72.20
2018-06-23T07:39:19.575Z,71.10
2018-06-23T07:41:48.024Z,70.90
2018-06-23T07:44:16.478Z,73.40
2018-06-23T07:46:45.005Z,71.60
2018-06-23T07:49:13.627Z,71.70
2018-06-23T07:51:42.099Z,72.00
2018-06-23T07:54:10.570Z,73.20
2018-06-23T07:56:39.074Z,71.80
2018-06-23T07:59:07.666Z,70.70
2018-06-23T08:01:36.227Z,69.70
2018-06-23T08:04:04.696Z,70.20
2018-06-23T08:06:33.193Z,70.40
2018-06-23T08:09:01.812Z,69.80
2018-06-23T08:11:30.311Z,70.00
2018-06-23T08:13:58.885Z,69.90
2018-06-23T08:16:27.879Z,71.20
2018-06-23T08:18:56.375Z,71.40
2018-06-23T08:21:24.987Z,70.70
2018-06-23T08:23:54.121Z,71.20
2018-06-23T08:26:22.821Z,71.10
2018-06-23T08:28:51.190Z,70.10
2018-06-23T08:31:19.753Z,69.20
2018-06-23T08:33:48.949Z,69.70
2018-06-23T08:36:17.619Z,68.80
2018-06-23T08:38:46.284Z,69.30
2018-06-23T08:41:15.033Z,69.90
2018-06-23T08:43:43.684Z,69.80
2018-06-23T08:46:12.155Z,71.00
2018-06-23T08:48:40.817Z,69.10
2018-06-23T08:51:09.706Z,67.10
2018-06-23T08:53:38.210Z,68.50
2018-06-23T08:56:06.732Z,70.00
2018-06-23T08:58:35.113Z,69.00
2018-06-23T09:01:03.638Z,70.30
2018-06-23T09:03:32.309Z,69.00
2018-06-23T09:06:00.793Z,69.90
2018-06-23T09:08:29.267Z,66.70
2018-06-23T09:10:57.839Z,67.60
2018-06-23T09:13:26.956Z,66.40
2018-06-23T09:15:56.002Z,65.60
2018-06-23T09:18:24.476Z,65.80
2018-06-23T09:20:52.989Z,66.20
2018-06-23T09:23:22.192Z,66.50
2018-06-23T09:25:50.803Z,68.20
2018-06-23T09:28:19.212Z,66.60
2018-06-23T09:30:47.689Z,63.50
2018-06-23T09:33:16.189Z,63.50
2018-06-23T09:35:44.716Z,63.30
2018-06-23T09:38:13.191Z,63.70
2018-06-23T09:40:42.704Z,63.90
2018-06-23T09:43:11.326Z,63.20
2018-06-23T09:45:39.841Z,64.20
2018-06-23T09:48:08.409Z,62.40
2018-06-23T09:50:36.945Z,62.10
2018-06-23T09:53:05.471Z,61.80
2018-06-23T09:55:34.124Z,62.50
2018-06-23T09:58:02.584Z,63.60
2018-06-23T10:00:31.524Z,63.00
2018-06-23T10:03:01.699Z,62.40
2018-06-23T10:05:30.512Z,61.90
2018-06-23T10:07:59.996Z,61.20
2018-06-23T10:10:29.187Z,62.10
2018-06-23T10:15:26.075Z,60.80
2018-06-23T10:17:54.640Z,60.50
2018-06-23T10:22:51.575Z,60.90
2018-06-23T10:25:20.135Z,60.00
2018-06-23T10:27:48.662Z,61.00
2018-06-23T10:30:17.150Z,62.00
2018-06-23T10:32:45.598Z,60.20
2018-06-23T10:35:14.115Z,59.20
2018-06-23T10:37:42.597Z,57.80
2018-06-23T10:40:11.375Z,58.50
2018-06-23T10:42:39.852Z,58.00
2018-06-23T10:45:08.474Z,57.90
2018-06-23T10:47:37.009Z,60.00
2018-06-23T10:50:05.922Z,58.40
2018-06-23T10:52:34.551Z,56.50
2018-06-23T10:55:03.375Z,52.60
2018-06-23T10:57:31.857Z,55.80
2018-06-23T11:00:00.337Z,55.00
2018-06-23T11:02:28.831Z,56.20
2018-06-23T11:07:25.517Z,57.10
2018-06-23T11:09:53.976Z,57.70
2018-06-23T11:12:22.445Z,57.00
2018-06-23T11:14:51.077Z,57.10
2018-06-23T11:17:19.596Z,57.50
2018-06-23T11:19:48.119Z,58.70
2018-06-23T11:24:44.838Z,59.90
2018-06-23T11:27:13.238Z,60.40
2018-06-23T11:29:42.065Z,56.20
2018-06-23T11:32:10.671Z,56.20
2018-06-23T11:34:39.096Z,57.00
2018-06-23T11:37:07.571Z,57.80
2018-06-23T11:39:36.134Z,56.90
2018-06-23T11:42:04.658Z,57.30
2018-06-23T11:44:33.122Z,56.10
2018-06-23T11:47:01.647Z,56.20
2018-06-23T11:49:30.156Z,55.50
2018-06-23T11:54:26.824Z,57.30
2018-06-23T11:56:55.382Z,54.90
2018-06-23T11:59:23.867Z,56.80
2018-06-23T12:01:52.553Z,54.90
2018-06-23T12:04:23.694Z,53.50
2018-06-23T12:06:52.180Z,55.00
2018-06-23T12:09:21.447Z,54.80
2018-06-23T12:11:50.236Z,55.30
2018-06-23T12:14:18.751Z,54.40
2018-06-23T12:16:47.352Z,54.70
2018-06-23T12:19:16.077Z,54.80
2018-06-23T12:21:44.666Z,55.30
2018-06-23T12:24:13.143Z,55.90
2018-06-23T12:29:09.907Z,56.00
2018-06-23T12:34:06.641Z,57.70
2018-06-23T12:36:35.135Z,56.00
2018-06-23T12:39:06.271Z,57.50
2018-06-23T12:41:34.902Z,54.70
2018-06-23T12:44:03.930Z,54.10
2018-06-23T12:46:32.435Z,54.40
2018-06-23T12:49:00.966Z,55.80
2018-06-23T12:53:57.790Z,55.00
2018-06-23T12:56:26.298Z,53.80
2018-06-23T12:58:54.778Z,53.90
2018-06-23T13:01:23.336Z,52.70
2018-06-23T13:03:52.780Z,53.90
2018-06-23T13:06:21.843Z,52.00
2018-06-23T13:08:50.350Z,52.80
2018-06-23T13:11:18.860Z,53.90
2018-06-23T13:13:47.364Z,54.00
2018-06-23T13:16:15.943Z,54.00
2018-06-23T13:18:45.178Z,54.00
2018-06-23T13:21:14.499Z,53.60
2018-06-23T13:23:43.028Z,52.10
2018-06-23T13:26:11.617Z,54.00
2018-06-23T13:28:40.240Z,52.20
2018-06-23T13:31:08.739Z,55.40
2018-06-23T13:33:37.321Z,53.50
2018-06-23T13:36:05.953Z,52.40
2018-06-23T13:38:34.565Z,54.50
2018-06-23T13:41:05.330Z,54.80
2018-06-23T13:43:34.132Z,53.80
2018-06-23T13:46:02.686Z,54.10
2018-06-23T13:48:31.177Z,53.70
2018-06-23T13:50:59.761Z,52.20
2018-06-23T13:53:28.242Z,51.90
2018-06-23T13:55:56.724Z,51.60
2018-06-23T13:58:25.252Z,52.70
2018-06-23T14:00:53.938Z,52.90
2018-06-23T14:03:22.759Z,51.50
2018-06-23T14:05:51.256Z,53.30
2018-06-23T14:08:19.729Z,53.30
2018-06-23T14:10:48.229Z,53.10
2018-06-23T14:13:16.869Z,53.00
2018-06-23T14:15:45.512Z,53.50
2018-06-23T14:18:14.056Z,53.10
2018-06-23T14:20:42.546Z,53.30
2018-06-23T14:23:11.029Z,51.50
2018-06-23T14:25:39.690Z,53.10
2018-06-23T14:28:08.344Z,53.80
2018-06-23T14:30:37.920Z,52.00
2018-06-23T14:33:06.383Z,53.20
2018-06-23T14:35:34.923Z,53.80
2018-06-23T14:38:03.552Z,53.40
2018-06-23T14:40:32.126Z,54.50
2018-06-23T14:43:00.657Z,54.00
2018-06-23T14:45:29.156Z,55.20
2018-06-23T14:47:57.669Z,54.10
2018-06-23T14:50:26.166Z,53.80
2018-06-23T14:52:54.767Z,53.50
2018-06-23T14:55:23.283Z,54.30
2018-06-23T14:57:51.837Z,53.60
2018-06-23T15:00:20.418Z,53.70
2018-06-23T15:02:49.046Z,54.20
2018-06-23T15:05:17.562Z,55.00
2018-06-23T15:07:46.200Z,53.90
2018-06-23T15:10:26.085Z,52.90
2018-06-23T15:13:06.218Z,53.70
2018-06-23T15:15:35.334Z,54.80
2018-06-23T15:18:03.938Z,55.50
2018-06-23T15:20:32.473Z,54.50
2018-06-23T15:23:01.019Z,55.60
2018-06-23T15:25:29.535Z,55.20
2018-06-23T15:30:26.224Z,53.50
2018-06-23T15:32:54.682Z,54.80
2018-06-23T15:35:23.176Z,55.60
2018-06-23T15:37:52.079Z,54.00
2018-06-23T15:40:21.792Z,55.30
2018-06-23T15:42:50.415Z,55.20
2018-06-23T15:45:19.009Z,54.90
2018-06-23T15:47:47.559Z,55.20
2018-06-23T15:50:16.497Z,55.90
2018-06-23T15:52:45.212Z,56.40
2018-06-23T15:55:13.691Z,55.80
2018-06-23T15:57:42.723Z,56.10
2018-06-23T16:00:11.325Z,56.80
2018-06-23T16:02:39.957Z,56.90
2018-06-23T16:05:08.524Z,57.70
2018-06-23T16:07:36.997Z,57.80
2018-06-23T16:10:09.195Z,57.90
2018-06-23T16:12:37.660Z,58.60
2018-06-23T16:15:06.122Z,58.50
2018-06-23T16:17:34.712Z,58.60
2018-06-23T16:20:03.270Z,59.80
2018-06-23T16:22:32.097Z,59.80
2018-06-23T16:25:00.590Z,60.10
2018-06-23T16:27:29.283Z,59.80
2018-06-23T16:29:57.777Z,60.10
2018-06-23T16:32:26.380Z,58.80
2018-06-23T16:34:55.058Z,59.80
2018-06-23T16:37:23.511Z,60.60
2018-06-23T16:39:52.082Z,60.00
2018-06-23T16:42:20.805Z,59.80
2018-06-23T16:44:49.417Z,59.20
2018-06-23T16:47:17.926Z,60.10
2018-06-23T16:49:46.426Z,59.70
2018-06-23T16:52:15.069Z,60.10
2018-06-23T16:54:43.588Z,60.00
2018-06-23T16:57:12.421Z,59.90
2018-06-23T16:59:41.158Z,58.80
2018-06-23T17:02:09.795Z,59.20
2018-06-23T17:04:38.269Z,59.00
2018-06-23T17:07:06.905Z,59.70
2018-06-23T17:09:35.694Z,60.10
2018-06-23T17:12:04.307Z,60.00
2018-06-23T17:14:32.741Z,59.80
2018-06-23T17:17:01.431Z,59.80
2018-06-23T17:19:29.959Z,59.60
2018-06-23T17:21:58.448Z,60.60
2018-06-23T17:24:27.070Z,60.60
2018-06-23T17:26:55.573Z,60.40
2018-06-23T17:29:24.202Z,62.00
2018-06-23T17:31:52.713Z,61.60
2018-06-23T17:34:21.202Z,60.80
2018-06-23T17:36:49.696Z,60.80
2018-06-23T17:39:18.126Z,61.10
2018-06-23T17:41:46.702Z,60.50
2018-06-23T17:44:15.288Z,60.80
2018-06-23T17:49:12.009Z,61.10
2018-06-23T17:51:40.459Z,60.90
2018-06-23T17:54:08.996Z,61.10
2018-06-23T17:56:37.465Z,61.20
2018-06-23T17:59:06.290Z,62.50
2018-06-23T18:01:34.751Z,62.20
2018-06-23T18:04:03.863Z,62.20
2018-06-23T18:06:32.532Z,64.00
2018-06-23T18:09:00.922Z,64.40
2018-06-23T18:11:29.373Z,63.70
2018-06-23T18:13:57.844Z,65.30
2018-06-23T18:16:26.309Z,63.80
2018-06-23T18:18:54.754Z,64.60
2018-06-23T18:21:23.186Z,64.70
2018-06-23T18:23:51.689Z,63.30
2018-06-23T18:26:20.208Z,63.10
2018-06-23T18:28:48.663Z,63.80
2018-06-23T18:31:17.121Z,64.10
2018-06-23T18:33:45.799Z,63.50
2018-06-23T18:36:14.281Z,64.50
2018-06-23T18:38:42.905Z,65.50
2018-06-23T18:41:11.401Z,64.90
2018-06-23T18:43:39.869Z,66.50
2018-06-23T18:46:08.447Z,67.20
2018-06-23T18:48:36.971Z,68.20
2018-06-23T18:51:05.503Z,69.40
2018-06-23T18:53:34.032Z,68.90
2018-06-23T18:56:02.526Z,67.90
2018-06-23T18:58:31.106Z,69.10
2018-06-23T19:00:59.691Z,69.40
2018-06-23T19:03:28.285Z,72.20
2018-06-23T19:05:57.160Z,70.80
2018-06-23T19:08:25.746Z,72.70
2018-06-23T19:10:54.297Z,73.30
2018-06-23T19:13:22.778Z,72.60
2018-06-23T19:15:51.346Z,73.10
2018-06-23T19:18:19.892Z,73.40
2018-06-23T19:20:48.444Z,73.10
2018-06-23T19:23:17.058Z,73.00
2018-06-23T19:25:45.595Z,71.80
2018-06-23T19:28:14.092Z,72.60
2018-06-23T19:30:42.585Z,73.20
2018-06-23T19:33:11.082Z,72.80
2018-06-23T19:35:39.614Z,73.20
2018-06-23T19:38:08.204Z,72.40
2018-06-23T19:40:37.300Z,72.70
2018-06-23T19:43:05.834Z,72.80
2018-06-23T19:45:34.448Z,73.30
2018-06-23T19:48:03.083Z,73.70
2018-06-23T19:50:31.961Z,73.30
2018-06-23T19:53:00.461Z,73.20
2018-06-23T19:55:28.899Z,73.50
2018-06-23T19:57:58.396Z,73.70
2018-06-23T20:00:27.200Z,74.40
2018-06-23T20:02:55.757Z,73.90
2018-06-23T20:05:25.493Z,74.20
2018-06-23T20:10:22.681Z,75.80
2018-06-23T20:12:51.170Z,75.10
2018-06-23T20:15:19.837Z,75.70
2018-06-23T20:17:49.206Z,76.00
2018-06-23T20:20:17.795Z,76.20
2018-06-23T20:22:46.310Z,76.70
2018-06-23T20:25:14.979Z,76.80
2018-06-23T20:27:43.561Z,76.60
2018-06-23T20:30:12.121Z,76.70
2018-06-23T20:32:40.698Z,77.80
2018-06-23T20:35:09.209Z,77.40
2018-06-23T20:37:37.822Z,77.80
2018-06-23T20:40:06.319Z,78.10
2018-06-23T20:42:34.892Z,79.40
2018-06-23T20:45:03.437Z,79.30
2018-06-23T20:47:32.122Z,79.60
2018-06-23T20:50:00.507Z,79.90
2018-06-23T20:52:28.980Z,79.10
2018-06-23T20:54:58.072Z,79.70
2018-06-23T20:57:26.764Z,80.40
2018-06-23T20:59:55.488Z,80.70
2018-06-23T21:02:24.152Z,80.40
2018-06-23T21:04:52.682Z,79.80
2018-06-23T21:07:22.127Z,80.40
2018-06-23T21:09:50.725Z,80.40
2018-06-23T21:12:19.273Z,80.10
2018-06-23T21:14:47.754Z,80.50
2018-06-23T21:17:16.284Z,80.10
2018-06-23T21:19:45.478Z,80.50
2018-06-23T21:22:13.979Z,80.70
2018-06-23T21:24:42.459Z,80.50
2018-06-23T21:27:11.278Z,80.90
2018-06-23T21:29:39.817Z,81.00
2018-06-23T21:32:08.328Z,80.60
2018-06-23T21:34:36.887Z,80.30
2018-06-23T21:37:05.417Z,80.20
2018-06-23T21:39:33.898Z,80.40
2018-06-23T21:42:02.388Z,80.40
2018-06-23T21:44:31.201Z,80.60
2018-06-23T21:46:59.858Z,79.90
2018-06-23T21:49:28.350Z,80.10
2018-06-23T21:51:56.862Z,79.90
2018-06-23T21:54:25.405Z,80.50
2018-06-23T21:59:22.030Z,81.50
2018-06-23T22:01:50.517Z,81.20
2018-06-23T22:04:18.967Z,82.40
2018-06-23T22:06:47.445Z,83.30
2018-06-23T22:09:16.048Z,84.70
2018-06-23T22:11:44.487Z,86.70
2018-06-23T22:14:12.979Z,86.90
2018-06-23T22:16:41.589Z,87.50
2018-06-23T22:19:10.068Z,87.90
2018-06-23T22:24:06.713Z,88.90
2018-06-23T22:26:35.223Z,87.70
2018-06-23T22:29:03.744Z,88.50
2018-06-23T22:31:32.232Z,89.70
2018-06-23T22:34:00.716Z,89.40
2018-06-23T22:36:29.194Z,89.70
2018-06-23T22:38:57.671Z,90.00
2018-06-23T22:41:26.184Z,90.00
2018-06-23T22:43:54.647Z,90.20
2018-06-23T22:46:23.124Z,90.30
2018-06-23T22:48:51.976Z,90.50
2018-06-23T22:51:20.458Z,91.00
2018-06-23T22:53:48.966Z,91.10
2018-06-23T22:56:17.433Z,91.60
2018-06-23T22:58:45.879Z,92.00
2018-06-23T23:01:14.345Z,92.40
2018-06-23T23:03:42.933Z,91.60
2018-06-23T23:06:11.443Z,92.10
2018-06-23T23:08:39.913Z,92.50
2018-06-23T23:11:08.445Z,92.30
2018-06-23T23:13:36.885Z,92.20
2018-06-23T23:16:05.756Z,92.60
2018-06-23T23:18:34.285Z,92.70
2018-06-23T23:21:02.849Z,92.60
2018-06-23T23:23:31.311Z,93.20
2018-06-23T23:25:59.775Z,93.40
2018-06-23T23:30:51.096Z,93.50
2018-06-23T23:33:19.567Z,93.70
2018-06-23T23:35:48.055Z,93.60
2018-06-23T23:38:16.495Z,93.90
2018-06-23T23:40:45.027Z,94.50
2018-06-23T23:43:14.084Z,94.90
2018-06-23T23:48:10.733Z,94.20
2018-06-23T23:50:39.261Z,93.90
2018-06-23T23:53:07.782Z,93.80
2018-06-23T23:55:36.237Z,93.70
2018-06-23T23:58:04.764Z,93.70
